Time;durP1;ratioP1;P1;durP2;ratioP2;P2;SDS_P1;SDS_P2;PMS_P1;PMS_P2;Temp;Humidity;BMP_temperature;BMP_pressure;BME280_temperature;BME280_humidity;BME280_pressure;Samples;Min_cycle;Max_cycle;Signal;HPM_P1;HPM_P2
2023/09/02 00:00:53;;;;;;;19.98;12.10;;;;;;;;;;5071002;28;20048;-65
2023/09/02 00:03:19;;;;;;;16.75;12.02;;;;;;;;;;5071155;28;20123;-65
2023/09/02 00:05:45;;;;;;;15.30;11.00;;;;;;;;;;5071624;28;20032;-65
2023/09/02 00:08:10;;;;;;;15.77;11.70;;;;;;;;;;5071814;28;20109;-65
2023/09/02 00:10:36;;;;;;;16.33;11.45;;;;;;;;;;5071420;28;20744;-65
2023/09/02 00:13:03;;;;;;;14.80;11.32;;;;;;;;;;5070737;28;20032;-65
2023/09/02 00:15:29;;;;;;;8.63;7.45;;;;;;;;;;5071532;28;20041;-65
2023/09/02 00:17:55;;;;;;;10.27;8.98;;;;;;;;;;5060752;28;20048;-65
2023/09/02 00:20:21;;;;;;;12.88;9.93;;;;;;;;;;5051340;28;20041;-65
2023/09/02 00:22:47;;;;;;;13.43;9.32;;;;;;;;;;5051227;28;20083;-65
2023/09/02 00:25:13;;;;;;;13.32;11.25;;;;;;;;;;5052850;28;20072;-65
2023/09/02 00:27:39;;;;;;;12.35;10.43;;;;;;;;;;5071310;28;20455;-65
2023/09/02 00:30:05;;;;;;;20.38;11.75;;;;;;;;;;5071536;28;20041;-65
2023/09/02 00:32:33;;;;;;;10.77;8.20;;;;;;;;;;5071338;28;20040;-65
2023/09/02 00:34:59;;;;;;;12.07;8.15;;;;;;;;;;5071065;28;20123;-65
2023/09/02 00:37:25;;;;;;;11.95;9.40;;;;;;;;;;5071004;28;20155;-65
2023/09/02 00:39:51;;;;;;;13.50;9.15;;;;;;;;;;5070904;28;20033;-65
2023/09/02 00:42:19;;;;;;;10.55;9.25;;;;;;;;;;5071310;28;20042;-65
2023/09/02 00:44:45;;;;;;;10.35;8.70;;;;;;;;;;5070962;28;20037;-65
2023/09/02 00:47:12;;;;;;;10.65;8.60;;;;;;;;;;5085290;22;20114;-63
2023/09/02 00:49:38;;;;;;;11.32;9.38;;;;;;;;;;5069421;28;20043;-63
2023/09/02 00:52:05;;;;;;;13.30;9.68;;;;;;;;;;5071240;28;20044;-63
2023/09/02 00:54:31;;;;;;;11.15;9.70;;;;;;;;;;5069756;28;20406;-63
2023/09/02 00:56:57;;;;;;;11.50;9.35;;;;;;;;;;5071118;28;20117;-63
2023/09/02 00:59:23;;;;;;;11.57;9.75;;;;;;;;;;5071024;28;20593;-63
2023/09/02 01:01:49;;;;;;;11.38;9.50;;;;;;;;;;5070710;28;20440;-63
2023/09/02 01:04:16;;;;;;;12.82;10.20;;;;;;;;;;5070970;28;20094;-63
2023/09/02 01:06:42;;;;;;;15.60;12.13;;;;;;;;;;5068982;28;20047;-63
2023/09/02 01:09:09;;;;;;;16.63;12.52;;;;;;;;;;5070154;28;20044;-63
2023/09/02 01:11:35;;;;;;;15.50;11.23;;;;;;;;;;5071107;28;20064;-63
2023/09/02 01:14:02;;;;;;;17.60;11.90;;;;;;;;;;5073840;28;20048;-63
2023/09/02 01:16:28;;;;;;;20.38;14.20;;;;;;;;;;5074911;28;20040;-63
2023/09/02 01:18:54;;;;;;;17.45;12.68;;;;;;;;;;5073609;28;20097;-63
2023/09/02 01:21:20;;;;;;;18.52;12.45;;;;;;;;;;5073652;28;20509;-63
2023/09/02 01:23:45;;;;;;;17.00;12.52;;;;;;;;;;5074131;28;20083;-63
2023/09/02 01:26:19;;;;;;;15.93;12.48;;;;;;;;;;5074209;28;20044;-63
2023/09/02 01:28:46;;;;;;;14.05;10.80;;;;;;;;;;5073248;28;20106;-63
2023/09/02 01:31:14;;;;;;;13.50;10.65;;;;;;;;;;5074643;28;20044;-63
2023/09/02 01:33:40;;;;;;;13.35;10.80;;;;;;;;;;5074212;28;20504;-62
2023/09/02 01:36:07;;;;;;;15.00;11.48;;;;;;;;;;5074459;28;20070;-63
2023/09/02 01:38:33;;;;;;;16.08;11.38;;;;;;;;;;5072517;28;20036;-63
2023/09/02 01:41:00;;;;;;;14.23;11.98;;;;;;;;;;5072956;28;20033;-63
2023/09/02 01:43:29;;;;;;;15.48;11.25;;;;;;;;;;5071079;28;20756;-63
2023/09/02 01:45:56;;;;;;;15.75;11.80;;;;;;;;;;5074052;28;20062;-63
2023/09/02 01:48:23;;;;;;;14.98;11.13;;;;;;;;;;5074077;28;20090;-63
2023/09/02 01:50:52;;;;;;;17.85;13.07;;;;;;;;;;5074166;28;20133;-63
2023/09/02 01:53:18;;;;;;;19.67;13.38;;;;;;;;;;5073095;28;20060;-63
2023/09/02 01:55:44;;;;;;;16.27;12.82;;;;;;;;;;5073268;28;20036;-64
2023/09/02 01:58:11;;;;;;;21.33;14.90;;;;;;;;;;5072674;28;20045;-63
2023/09/02 02:00:40;;;;;;;15.27;12.50;;;;;;;;;;5069899;28;20066;-63
2023/09/02 02:03:16;;;;;;;18.83;12.55;;;;;;;;;;5081331;28;20481;-63
2023/09/02 02:05:45;;;;;;;15.15;10.90;;;;;;;;;;5052894;28;20406;-63
2023/09/02 02:08:15;;;;;;;16.55;11.15;;;;;;;;;;5053632;28;20090;-63
2023/09/02 02:10:42;;;;;;;12.15;10.65;;;;;;;;;;5072847;28;20044;-63
2023/09/02 02:13:08;;;;;;;14.38;10.57;;;;;;;;;;5073432;28;20044;-63
2023/09/02 02:15:34;;;;;;;20.77;12.68;;;;;;;;;;5073639;28;20120;-63
2023/09/02 02:18:00;;;;;;;25.27;13.23;;;;;;;;;;5073344;28;20140;-63
2023/09/02 02:20:34;;;;;;;22.05;14.32;;;;;;;;;;5073506;28;20094;-63
2023/09/02 02:23:00;;;;;;;20.27;12.73;;;;;;;;;;5073024;28;20393;-63
2023/09/02 02:25:26;;;;;;;18.50;12.50;;;;;;;;;;5071139;28;20040;-63
2023/09/02 02:27:52;;;;;;;19.58;12.90;;;;;;;;;;5072824;28;20397;-63
2023/09/02 02:30:18;;;;;;;18.38;13.70;;;;;;;;;;5072881;28;20082;-63
2023/09/02 02:32:44;;;;;;;20.13;14.27;;;;;;;;;;5073126;28;20032;-63
2023/09/02 02:35:10;;;;;;;23.08;13.95;;;;;;;;;;5073137;28;20047;-63
2023/09/02 02:37:36;;;;;;;21.20;14.70;;;;;;;;;;5072824;28;20079;-63
2023/09/02 02:40:02;;;;;;;18.50;13.48;;;;;;;;;;5073253;28;20094;-62
2023/09/02 02:42:28;;;;;;;15.75;12.43;;;;;;;;;;5071833;28;20032;-63
2023/09/02 02:44:54;;;;;;;20.10;13.30;;;;;;;;;;5062712;28;20539;-63
2023/09/02 02:47:20;;;;;;;18.98;13.60;;;;;;;;;;5072867;28;20116;-63
2023/09/02 02:49:46;;;;;;;19.83;14.88;;;;;;;;;;5072829;28;20036;-63
2023/09/02 02:52:12;;;;;;;26.80;16.63;;;;;;;;;;5071798;28;20040;-63
2023/09/02 02:54:38;;;;;;;22.48;15.98;;;;;;;;;;5072320;28;20040;-62
2023/09/02 02:57:04;;;;;;;22.25;16.15;;;;;;;;;;5072549;28;20067;-63
2023/09/02 02:59:30;;;;;;;25.15;17.17;;;;;;;;;;5070181;28;20119;-63
2023/09/02 03:01:57;;;;;;;22.65;16.52;;;;;;;;;;5072610;28;20071;-63
2023/09/02 03:04:22;;;;;;;25.13;17.00;;;;;;;;;;5054487;28;20048;-63
2023/09/02 03:06:48;;;;;;;22.40;16.05;;;;;;;;;;5072132;28;20052;-62
2023/09/02 03:09:14;;;;;;;22.50;16.60;;;;;;;;;;5072161;28;20072;-62
2023/09/02 03:11:41;;;;;;;21.23;16.48;;;;;;;;;;5072107;28;20048;-62
2023/09/02 03:14:07;;;;;;;22.77;16.80;;;;;;;;;;5054272;28;20048;-62
2023/09/02 03:16:33;;;;;;;25.67;17.95;;;;;;;;;;5071588;28;20392;-62
2023/09/02 03:18:59;;;;;;;24.50;18.25;;;;;;;;;;5071538;28;20137;-62
2023/09/02 03:21:25;;;;;;;24.13;16.35;;;;;;;;;;5072039;28;20079;-62
2023/09/02 03:23:51;;;;;;;29.45;18.30;;;;;;;;;;5072213;28;20051;-62
2023/09/02 03:26:24;;;;;;;25.83;16.98;;;;;;;;;;5071490;28;20047;-63
2023/09/02 03:28:50;;;;;;;25.90;17.63;;;;;;;;;;5072257;28;20444;-62
2023/09/02 03:31:16;;;;;;;23.23;16.85;;;;;;;;;;5072180;28;20036;-62
2023/09/02 03:33:42;;;;;;;21.80;16.02;;;;;;;;;;5070693;28;20493;-63
2023/09/02 03:36:08;;;;;;;24.23;16.75;;;;;;;;;;5072103;28;20044;-62
2023/09/02 03:38:34;;;;;;;25.65;17.08;;;;;;;;;;5071708;28;20036;-62
2023/09/02 03:41:00;;;;;;;22.60;16.75;;;;;;;;;;5072119;28;20037;-62
2023/09/02 03:43:26;;;;;;;25.35;17.83;;;;;;;;;;5072014;28;20033;-63
2023/09/02 03:45:52;;;;;;;27.08;18.15;;;;;;;;;;5071971;28;20512;-63
2023/09/02 03:48:19;;;;;;;25.92;18.75;;;;;;;;;;5071608;28;20048;-62
2023/09/02 03:51:05;;;;;;;24.98;18.55;;;;;;;;;;5070248;28;20628;-62
2023/09/02 03:53:31;;;;;;;25.42;16.85;;;;;;;;;;5071648;28;20055;-62
2023/09/02 03:55:57;;;;;;;25.55;18.40;;;;;;;;;;5071930;28;20048;-63
2023/09/02 03:58:23;;;;;;;24.55;17.65;;;;;;;;;;5071338;28;20083;-63
2023/09/02 04:00:49;;;;;;;23.48;18.52;;;;;;;;;;5070792;28;20065;-63
2023/09/02 04:03:19;;;;;;;25.00;17.88;;;;;;;;;;5088030;28;20097;-63
2023/09/02 04:05:45;;;;;;;28.95;19.00;;;;;;;;;;5082850;28;20115;-63
2023/09/02 04:08:11;;;;;;;23.92;17.45;;;;;;;;;;5068763;28;20048;-63
2023/09/02 04:10:37;;;;;;;22.88;17.42;;;;;;;;;;5071512;28;20044;-63
2023/09/02 04:13:03;;;;;;;26.92;18.52;;;;;;;;;;5071494;28;20051;-63
2023/09/02 04:15:29;;;;;;;23.70;18.50;;;;;;;;;;5069982;28;20094;-63
2023/09/02 04:17:55;;;;;;;25.38;19.00;;;;;;;;;;5071200;28;20127;-63
2023/09/02 04:20:21;;;;;;;26.63;18.92;;;;;;;;;;5071723;28;20040;-63
2023/09/02 04:22:47;;;;;;;26.27;19.30;;;;;;;;;;5071406;28;20579;-63
2023/09/02 04:25:15;;;;;;;28.73;18.90;;;;;;;;;;5071145;28;20040;-63
2023/09/02 04:27:41;;;;;;;30.20;20.00;;;;;;;;;;5069910;28;20517;-63
2023/09/02 04:30:07;;;;;;;26.40;19.45;;;;;;;;;;5071296;28;20567;-63
2023/09/02 04:32:33;;;;;;;26.08;19.45;;;;;;;;;;5071097;28;20047;-63
2023/09/02 04:34:59;;;;;;;28.08;19.20;;;;;;;;;;5071391;28;20402;-63
2023/09/02 04:37:25;;;;;;;26.77;19.15;;;;;;;;;;5071017;28;20036;-63
2023/09/02 04:39:51;;;;;;;28.50;20.33;;;;;;;;;;5071515;28;20043;-63
2023/09/02 04:42:17;;;;;;;28.67;19.52;;;;;;;;;;5071284;28;20402;-63
2023/09/02 04:44:43;;;;;;;27.63;19.92;;;;;;;;;;5071031;28;20041;-63
2023/09/02 04:47:10;;;;;;;29.95;20.17;;;;;;;;;;5071854;28;20033;-63
2023/09/02 04:49:36;;;;;;;26.40;20.10;;;;;;;;;;5075265;28;20032;-63
2023/09/02 04:52:03;;;;;;;25.85;19.33;;;;;;;;;;5075164;28;20045;-63
2023/09/02 04:54:29;;;;;;;27.33;19.98;;;;;;;;;;5074917;28;20123;-63
2023/09/02 04:56:55;;;;;;;32.10;20.80;;;;;;;;;;5074488;28;20123;-63
2023/09/02 04:59:21;;;;;;;26.15;19.73;;;;;;;;;;5074806;28;20049;-63
2023/09/02 05:01:47;;;;;;;29.20;19.77;;;;;;;;;;5074810;28;20402;-63
2023/09/02 05:04:13;;;;;;;29.00;21.23;;;;;;;;;;5074843;28;20075;-63
2023/09/02 05:06:39;;;;;;;26.48;20.27;;;;;;;;;;5074060;28;20036;-63
2023/09/02 05:09:05;;;;;;;29.17;20.40;;;;;;;;;;5074865;28;20047;-63
2023/09/02 05:11:31;;;;;;;30.40;20.75;;;;;;;;;;5074541;28;20044;-63
2023/09/02 05:14:09;;;;;;;29.08;20.98;;;;;;;;;;5063485;28;20041;-64
2023/09/02 05:16:35;;;;;;;32.65;20.95;;;;;;;;;;5073006;28;20509;-62
2023/09/02 05:19:01;;;;;;;34.40;21.65;;;;;;;;;;5050426;28;20052;-62
2023/09/02 05:21:27;;;;;;;30.08;21.02;;;;;;;;;;5071229;28;20059;-62
2023/09/02 05:23:53;;;;;;;30.83;21.08;;;;;;;;;;5071671;28;20029;-62
2023/09/02 05:26:19;;;;;;;33.95;21.25;;;;;;;;;;5071811;28;20055;-62
2023/09/02 05:28:45;;;;;;;30.33;20.70;;;;;;;;;;5073754;28;20040;-62
2023/09/02 05:31:11;;;;;;;29.98;21.60;;;;;;;;;;5069402;28;20135;-62
2023/09/02 05:33:37;;;;;;;29.58;20.88;;;;;;;;;;5074107;28;20123;-62
2023/09/02 05:36:03;;;;;;;32.20;21.38;;;;;;;;;;5074381;28;20040;-62
2023/09/02 05:38:29;;;;;;;31.45;21.50;;;;;;;;;;5073924;28;20048;-62
2023/09/02 05:40:55;;;;;;;31.00;22.17;;;;;;;;;;5056112;28;20437;-62
2023/09/02 05:43:24;;;;;;;33.67;23.38;;;;;;;;;;5072087;28;20064;-62
2023/09/02 05:45:50;;;;;;;36.10;24.13;;;;;;;;;;5070090;28;20036;-62
2023/09/02 05:48:16;;;;;;;35.25;23.25;;;;;;;;;;5073703;28;20043;-62
2023/09/02 05:50:43;;;;;;;33.67;22.60;;;;;;;;;;5071435;28;20083;-62
2023/09/02 05:53:09;;;;;;;37.22;23.55;;;;;;;;;;5072963;28;20040;-62
2023/09/02 05:55:35;;;;;;;41.92;24.48;;;;;;;;;;5072937;28;20105;-62
2023/09/02 05:58:01;;;;;;;40.00;24.73;;;;;;;;;;5072853;28;20051;-62
2023/09/02 06:00:27;;;;;;;43.40;25.10;;;;;;;;;;5071615;28;20394;-62
2023/09/02 06:02:53;;;;;;;41.78;25.42;;;;;;;;;;5072546;28;20033;-63
2023/09/02 06:05:19;;;;;;;38.92;22.55;;;;;;;;;;5073753;28;20040;-62
2023/09/02 06:07:45;;;;;;;39.17;24.83;;;;;;;;;;5071781;28;20112;-63
2023/09/02 06:10:11;;;;;;;42.03;25.33;;;;;;;;;;5073740;28;20123;-63
2023/09/02 06:12:37;;;;;;;38.22;24.80;;;;;;;;;;5067953;28;20045;-63
2023/09/02 06:15:03;;;;;;;42.50;24.92;;;;;;;;;;5072026;28;20124;-62
2023/09/02 06:17:31;;;;;;;38.78;24.88;;;;;;;;;;5063327;28;20044;-63
2023/09/02 06:20:00;;;;;;;40.97;24.52;;;;;;;;;;5072368;28;20041;-63
2023/09/02 06:22:26;;;;;;;42.05;24.63;;;;;;;;;;5070995;28;20110;-63
2023/09/02 06:24:54;;;;;;;40.42;25.73;;;;;;;;;;5071543;28;20501;-62
2023/09/02 06:27:20;;;;;;;42.67;26.15;;;;;;;;;;5070728;28;20061;-63
2023/09/02 06:29:46;;;;;;;36.97;25.33;;;;;;;;;;5072618;28;20044;-63
2023/09/02 06:32:12;;;;;;;40.60;24.35;;;;;;;;;;5055177;28;20041;-63
2023/09/02 06:34:38;;;;;;;44.47;24.85;;;;;;;;;;5072662;28;20405;-63
2023/09/02 06:37:04;;;;;;;40.97;25.15;;;;;;;;;;5072125;28;20041;-63
2023/09/02 06:39:30;;;;;;;43.47;25.17;;;;;;;;;;5072982;28;20063;-63
2023/09/02 06:41:56;;;;;;;44.58;25.65;;;;;;;;;;5073041;28;20394;-64
2023/09/02 06:44:22;;;;;;;40.47;25.90;;;;;;;;;;5072452;28;20040;-63
2023/09/02 06:46:48;;;;;;;41.40;25.50;;;;;;;;;;5054422;28;20052;-64
2023/09/02 06:49:14;;;;;;;43.47;25.65;;;;;;;;;;5064027;22;20052;-64
2023/09/02 06:51:40;;;;;;;44.78;25.63;;;;;;;;;;5049047;28;20120;-64
2023/09/02 06:57:17;;;;;;;47.28;26.15;;;;;;;;;;5051946;28;20045;-64
2023/09/02 06:59:43;;;;;;;44.15;25.65;;;;;;;;;;5028281;28;20030;-64
2023/09/02 07:02:09;;;;;;;46.03;26.15;;;;;;;;;;5027733;28;20049;-65
2023/09/02 07:04:35;;;;;;;46.22;26.00;;;;;;;;;;5012539;28;20045;-65
2023/09/02 07:07:01;;;;;;;46.88;26.27;;;;;;;;;;5013106;28;20439;-66
2023/09/02 07:09:27;;;;;;;41.17;24.05;;;;;;;;;;5012546;28;20125;-66
2023/09/02 07:11:53;;;;;;;42.88;26.17;;;;;;;;;;5015471;28;20073;-66
2023/09/02 07:14:19;;;;;;;43.38;24.73;;;;;;;;;;5023524;28;20052;-66
2023/09/02 07:16:45;;;;;;;45.33;25.88;;;;;;;;;;5032432;28;20037;-66
2023/09/02 07:19:11;;;;;;;42.03;24.23;;;;;;;;;;5031893;28;20483;-66
2023/09/02 07:21:37;;;;;;;43.10;25.83;;;;;;;;;;5031721;28;20041;-66
2023/09/02 07:24:03;;;;;;;44.70;26.20;;;;;;;;;;5020131;28;20113;-66
2023/09/02 07:26:32;;;;;;;44.38;26.33;;;;;;;;;;5030869;28;20038;-66
2023/09/02 07:28:58;;;;;;;45.25;26.05;;;;;;;;;;5030872;28;20045;-66
2023/09/02 07:31:25;;;;;;;42.75;25.00;;;;;;;;;;5032265;28;20501;-65
2023/09/02 07:33:51;;;;;;;42.55;24.90;;;;;;;;;;5031440;28;20527;-65
2023/09/02 07:36:17;;;;;;;45.80;26.67;;;;;;;;;;5015667;28;20041;-65
2023/09/02 07:38:46;;;;;;;41.80;24.45;;;;;;;;;;5012412;28;20048;-66
2023/09/02 07:41:12;;;;;;;41.92;25.38;;;;;;;;;;5014394;28;20041;-65
2023/09/02 07:43:38;;;;;;;42.17;25.33;;;;;;;;;;5029364;28;20034;-66
2023/09/02 07:46:04;;;;;;;43.95;25.92;;;;;;;;;;5031021;28;20087;-66
2023/09/02 07:48:30;;;;;;;46.13;26.20;;;;;;;;;;5021810;28;20037;-65
2023/09/02 07:50:56;;;;;;;45.35;25.70;;;;;;;;;;5015346;28;20042;-65
2023/09/02 07:53:22;;;;;;;46.72;26.02;;;;;;;;;;5010520;28;20046;-66
2023/09/02 07:55:48;;;;;;;38.50;25.23;;;;;;;;;;5020287;28;20081;-66
2023/09/02 07:58:14;;;;;;;45.58;24.40;;;;;;;;;;5025423;28;20049;-66
2023/09/02 08:00:40;;;;;;;44.53;25.98;;;;;;;;;;5020471;28;20048;-65
2023/09/02 08:03:35;;;;;;;43.85;25.95;;;;;;;;;;5011925;28;20038;-65
2023/09/02 08:06:06;;;;;;;45.47;26.00;;;;;;;;;;5004749;28;20056;-66
2023/09/02 08:08:32;;;;;;;45.58;26.15;;;;;;;;;;5023337;28;20053;-66
2023/09/02 08:11:04;;;;;;;43.40;25.27;;;;;;;;;;5031630;28;20037;-66
2023/09/02 08:13:31;;;;;;;42.60;25.17;;;;;;;;;;5031341;28;20033;-67
2023/09/02 08:15:57;;;;;;;43.72;25.98;;;;;;;;;;5022811;28;20037;-65
2023/09/02 08:18:23;;;;;;;40.80;23.75;;;;;;;;;;5023384;28;20042;-65
2023/09/02 08:20:49;;;;;;;39.35;23.88;;;;;;;;;;5031623;28;20040;-65
2023/09/02 08:23:15;;;;;;;45.30;25.17;;;;;;;;;;5033756;28;20045;-65
2023/09/02 08:25:41;;;;;;;41.42;23.80;;;;;;;;;;5028901;28;20482;-65
2023/09/02 08:28:07;;;;;;;40.22;24.15;;;;;;;;;;5027399;28;20045;-65
2023/09/02 08:30:33;;;;;;;39.47;23.98;;;;;;;;;;5035821;28;20048;-65
2023/09/02 08:32:58;;;;;;;39.92;23.45;;;;;;;;;;5033944;28;20537;-65
2023/09/02 08:35:24;;;;;;;36.63;22.92;;;;;;;;;;5034281;28;20041;-65
2023/09/02 08:37:51;;;;;;;37.33;22.00;;;;;;;;;;5030272;28;20042;-65
2023/09/02 08:40:17;;;;;;;39.58;23.13;;;;;;;;;;5021624;28;20045;-65
2023/09/02 08:42:43;;;;;;;36.20;22.00;;;;;;;;;;5026146;28;20522;-65
2023/09/02 08:45:11;;;;;;;33.67;21.40;;;;;;;;;;5031708;28;20041;-65
2023/09/02 08:47:39;;;;;;;33.63;22.48;;;;;;;;;;5031638;28;20048;-65
2023/09/02 08:50:05;;;;;;;35.50;22.38;;;;;;;;;;5026439;28;20052;-65
2023/09/02 08:52:32;;;;;;;36.10;22.02;;;;;;;;;;5035059;28;20041;-66
2023/09/02 08:54:58;;;;;;;35.55;22.73;;;;;;;;;;5031087;28;20403;-65
2023/09/02 08:57:24;;;;;;;35.13;21.92;;;;;;;;;;5024512;28;20492;-65
2023/09/02 08:59:50;;;;;;;36.67;22.08;;;;;;;;;;5034603;28;20083;-65
2023/09/02 09:02:18;;;;;;;34.53;22.13;;;;;;;;;;5035097;28;20041;-65
2023/09/02 09:04:48;;;;;;;34.53;23.17;;;;;;;;;;5032471;28;20450;-65
2023/09/02 09:07:14;;;;;;;32.08;21.17;;;;;;;;;;5023571;28;20066;-65
2023/09/02 09:09:42;;;;;;;37.78;22.85;;;;;;;;;;5034993;28;20041;-65
2023/09/02 09:12:09;;;;;;;32.08;21.58;;;;;;;;;;5032401;28;20430;-66
2023/09/02 09:14:38;;;;;;;31.50;20.50;;;;;;;;;;5025268;28;20049;-65
2023/09/02 09:17:04;;;;;;;29.60;20.58;;;;;;;;;;5022453;28;20407;-66
2023/09/02 09:19:30;;;;;;;34.08;21.02;;;;;;;;;;5032589;28;20041;-66
2023/09/02 09:21:57;;;;;;;36.10;21.23;;;;;;;;;;5034678;28;20487;-65
2023/09/02 09:24:23;;;;;;;37.67;22.17;;;;;;;;;;5034371;28;20042;-65
2023/09/02 09:26:50;;;;;;;32.05;20.67;;;;;;;;;;5026051;28;20033;-66
2023/09/02 09:29:17;;;;;;;33.05;21.15;;;;;;;;;;5034550;28;20056;-65
2023/09/02 09:31:44;;;;;;;34.78;21.75;;;;;;;;;;5034360;28;20403;-66
2023/09/02 09:34:10;;;;;;;33.90;22.83;;;;;;;;;;5026324;28;20056;-65
2023/09/02 09:36:36;;;;;;;31.38;21.60;;;;;;;;;;5031068;28;20050;-65
2023/09/02 09:39:04;;;;;;;35.90;22.23;;;;;;;;;;5019781;28;20114;-65
2023/09/02 09:41:30;;;;;;;34.03;23.23;;;;;;;;;;5014653;28;20044;-66
2023/09/02 09:44:06;;;;;;;34.55;23.73;;;;;;;;;;5014294;28;20113;-66
2023/09/02 09:46:36;;;;;;;35.65;22.50;;;;;;;;;;5022481;28;20037;-66
2023/09/02 09:49:02;;;;;;;35.50;22.23;;;;;;;;;;5028611;28;20053;-66
2023/09/02 09:51:29;;;;;;;34.58;22.98;;;;;;;;;;5034314;28;20053;-66
2023/09/02 09:53:55;;;;;;;30.95;20.88;;;;;;;;;;5033963;28;20053;-66
2023/09/02 09:56:21;;;;;;;35.55;21.55;;;;;;;;;;5028368;28;20095;-66
2023/09/02 09:58:47;;;;;;;35.80;21.48;;;;;;;;;;5026207;28;20037;-66
2023/09/02 10:01:24;;;;;;;32.47;20.92;;;;;;;;;;5032218;28;20072;-66
2023/09/02 10:03:51;;;;;;;33.90;21.20;;;;;;;;;;5026509;28;20509;-66
2023/09/02 10:06:17;;;;;;;28.75;19.92;;;;;;;;;;5024764;28;20037;-65
2023/09/02 10:08:50;;;;;;;26.92;19.27;;;;;;;;;;5025993;28;20148;-66
2023/09/02 10:11:23;;;;;;;28.38;18.30;;;;;;;;;;5032958;28;20430;-66
2023/09/02 10:13:52;;;;;;;27.02;18.52;;;;;;;;;;5029688;28;20052;-66
2023/09/02 10:16:19;;;;;;;29.45;17.95;;;;;;;;;;5016901;28;20044;-66
2023/09/02 10:18:48;;;;;;;29.63;20.25;;;;;;;;;;5013878;28;20048;-66
2023/09/02 10:21:15;;;;;;;28.83;19.17;;;;;;;;;;5013960;28;20042;-64
2023/09/02 10:23:44;;;;;;;27.80;17.77;;;;;;;;;;5024710;28;20073;-65
2023/09/02 10:26:15;;;;;;;29.75;19.65;;;;;;;;;;5033260;28;20046;-65
2023/09/02 10:28:41;;;;;;;;;;;;;;;;;;5032930;28;20080;-65
2023/09/02 10:31:12;;;;;;;31.38;19.38;;;;;;;;;;5033573;28;19957;-64
2023/09/02 10:33:45;;;;;;;29.95;18.15;;;;;;;;;;5032505;28;20116;-65
2023/09/02 10:36:14;;;;;;;29.55;19.90;;;;;;;;;;5017662;28;20065;-65
2023/09/02 10:38:44;;;;;;;32.30;18.65;;;;;;;;;;5012079;28;20050;-65
2023/09/02 10:41:17;;;;;;;26.50;18.63;;;;;;;;;;5012418;28;20111;-65
2023/09/02 10:43:44;;;;;;;28.50;18.70;;;;;;;;;;5021490;28;20062;-65
2023/09/02 10:46:10;;;;;;;26.42;18.17;;;;;;;;;;5028189;28;20491;-65
2023/09/02 10:48:38;;;;;;;25.67;18.10;;;;;;;;;;5032548;28;20056;-65
2023/09/02 10:51:05;;;;;;;28.83;18.15;;;;;;;;;;5032630;28;20554;-65
2023/09/02 10:53:51;;;;;;;27.00;17.17;;;;;;;;;;5023164;28;20487;-64
2023/09/02 10:56:37;;;;;;;25.85;17.60;;;;;;;;;;5029262;28;20069;-65
2023/09/02 10:59:06;;;;;;;23.42;15.77;;;;;;;;;;5032848;28;20041;-64
2023/09/02 11:01:42;;;;;;;24.20;16.25;;;;;;;;;;5031185;28;20045;-65
2023/09/02 11:04:09;;;;;;;28.55;16.83;;;;;;;;;;5026456;28;20506;-65
2023/09/02 11:06:34;;;;;;;26.45;15.38;;;;;;;;;;5020856;28;20113;-65
2023/09/02 11:09:00;;;;;;;22.60;15.38;;;;;;;;;;5024123;28;20567;-65
2023/09/02 11:11:46;;;;;;;21.77;15.10;;;;;;;;;;5018591;28;20046;-65
2023/09/02 11:14:12;;;;;;;22.75;14.25;;;;;;;;;;5019059;28;21425;-65
2023/09/02 11:16:40;;;;;;;20.60;14.45;;;;;;;;;;5018407;28;20094;-65
2023/09/02 11:19:08;;;;;;;21.90;15.05;;;;;;;;;;5018689;28;20087;-65
2023/09/02 11:21:40;;;;;;;24.25;15.07;;;;;;;;;;5022931;28;20052;-64
2023/09/02 11:24:25;;;;;;;24.63;14.55;;;;;;;;;;5024125;28;20121;-64
2023/09/02 11:26:56;;;;;;;24.88;15.32;;;;;;;;;;5025394;28;20041;-64
2023/09/02 11:29:25;;;;;;;25.27;14.18;;;;;;;;;;5020746;28;20526;-64
2023/09/02 11:31:55;;;;;;;19.15;13.85;;;;;;;;;;5023033;28;20079;-65
2023/09/02 11:34:21;;;;;;;21.75;13.25;;;;;;;;;;5024065;28;20538;-64
2023/09/02 11:36:50;;;;;;;19.48;12.85;;;;;;;;;;5027868;28;20038;-64
2023/09/02 11:39:16;;;;;;;17.00;13.07;;;;;;;;;;5011835;28;20129;-64
2023/09/02 11:41:42;;;;;;;22.90;12.25;;;;;;;;;;5013759;28;20056;-64
2023/09/02 11:44:12;;;;;;;17.20;12.13;;;;;;;;;;5023169;28;20489;-65
2023/09/02 11:46:42;;;;;;;20.27;12.02;;;;;;;;;;5017848;28;20042;-65
2023/09/02 11:49:23;;;;;;;16.45;12.10;;;;;;;;;;5019865;28;20502;-65
2023/09/02 11:51:49;;;;;;;17.00;11.57;;;;;;;;;;5023880;28;20063;-65
2023/09/02 11:54:16;;;;;;;18.42;12.70;;;;;;;;;;5022738;28;20053;-64
2023/09/02 11:56:42;;;;;;;16.95;12.32;;;;;;;;;;5027145;28;20045;-65
2023/09/02 11:59:21;;;;;;;15.30;11.50;;;;;;;;;;5026474;28;20037;-65
2023/09/02 12:01:47;;;;;;;15.20;11.20;;;;;;;;;;5024087;28;20037;-64
2023/09/02 12:04:13;;;;;;;19.20;12.02;;;;;;;;;;5022516;28;20048;-64
2023/09/02 12:06:39;;;;;;;15.75;10.68;;;;;;;;;;5021585;28;20056;-64
2023/09/02 12:09:06;;;;;;;16.38;9.70;;;;;;;;;;5024938;28;20042;-65
2023/09/02 12:11:32;;;;;;;12.73;9.63;;;;;;;;;;5023768;28;20514;-64
2023/09/02 12:13:59;;;;;;;14.82;9.70;;;;;;;;;;5023676;28;20037;-65
2023/09/02 12:16:26;;;;;;;11.65;7.78;;;;;;;;;;5031161;28;20049;-65
2023/09/02 12:18:52;;;;;;;14.60;9.65;;;;;;;;;;5029889;28;20121;-65
2023/09/02 12:21:18;;;;;;;17.58;11.68;;;;;;;;;;5031163;28;20038;-64
2023/09/02 12:23:44;;;;;;;17.80;11.65;;;;;;;;;;5023169;28;20034;-64
2023/09/02 12:26:10;;;;;;;18.75;12.13;;;;;;;;;;5030955;28;20115;-64
2023/09/02 12:28:36;;;;;;;16.85;12.32;;;;;;;;;;5022821;28;20088;-64
2023/09/02 12:31:04;;;;;;;17.83;11.65;;;;;;;;;;5031390;28;20046;-64
2023/09/02 12:33:31;;;;;;;20.10;12.63;;;;;;;;;;5031338;28;20045;-64
2023/09/02 12:35:57;;;;;;;20.13;11.93;;;;;;;;;;5030535;28;20466;-64
2023/09/02 12:38:23;;;;;;;19.33;12.43;;;;;;;;;;5030743;28;20137;-64
2023/09/02 12:40:53;;;;;;;20.25;11.88;;;;;;;;;;5018752;28;20061;-64
2023/09/02 12:43:24;;;;;;;21.02;12.15;;;;;;;;;;5011248;28;20038;-64
2023/09/02 12:45:51;;;;;;;17.35;11.13;;;;;;;;;;5011219;28;20046;-65
2023/09/02 12:48:18;;;;;;;15.10;10.50;;;;;;;;;;5048658;22;20123;-64
2023/09/02 12:50:44;;;;;;;18.60;11.75;;;;;;;;;;5087291;28;20275;-65
2023/09/02 12:53:12;;;;;;;16.45;10.52;;;;;;;;;;5088893;28;20078;-63
2023/09/02 12:55:42;;;;;;;16.60;10.23;;;;;;;;;;5084198;28;20028;-64
2023/09/02 12:58:07;;;;;;;15.68;10.48;;;;;;;;;;5081362;28;20044;-64
2023/09/02 13:00:33;;;;;;;16.10;10.05;;;;;;;;;;5070538;28;20175;-65
2023/09/02 13:02:59;;;;;;;14.20;10.27;;;;;;;;;;5070931;28;20036;-65
2023/09/02 13:05:25;;;;;;;15.65;11.15;;;;;;;;;;5071195;28;20055;-65
2023/09/02 13:07:56;;;;;;;19.20;10.90;;;;;;;;;;5071731;28;20102;-65
2023/09/02 13:10:33;;;;;;;14.98;10.77;;;;;;;;;;5074657;28;20090;-65
2023/09/02 13:12:59;;;;;;;14.23;10.20;;;;;;;;;;5074310;28;20047;-65
2023/09/02 13:15:25;;;;;;;15.75;9.98;;;;;;;;;;5077774;28;20036;-65
2023/09/02 13:17:51;;;;;;;15.52;10.00;;;;;;;;;;5074529;28;20044;-64
2023/09/02 13:20:18;;;;;;;16.58;10.32;;;;;;;;;;5074640;28;20048;-65
2023/09/02 13:22:46;;;;;;;14.02;9.07;;;;;;;;;;5074376;28;20040;-65
2023/09/02 13:25:13;;;;;;;14.52;9.77;;;;;;;;;;5079011;28;20566;-65
2023/09/02 13:27:39;;;;;;;13.23;9.30;;;;;;;;;;5072830;28;20485;-66
2023/09/02 13:30:05;;;;;;;14.57;9.27;;;;;;;;;;5074767;28;20047;-65
2023/09/02 13:32:32;;;;;;;11.32;8.93;;;;;;;;;;5074508;28;20040;-65
2023/09/02 13:35:07;;;;;;;14.45;9.23;;;;;;;;;;5077382;28;20044;-65
2023/09/02 13:37:34;;;;;;;12.38;9.45;;;;;;;;;;5075546;28;20033;-65
2023/09/02 13:40:26;;;;;;;13.15;10.23;;;;;;;;;;5079583;28;20449;-65
2023/09/02 13:42:53;;;;;;;13.07;8.93;;;;;;;;;;5073254;28;20044;-64
2023/09/02 13:45:29;;;;;;;16.33;9.65;;;;;;;;;;5078205;28;20047;-65
2023/09/02 13:47:55;;;;;;;17.23;9.73;;;;;;;;;;5072451;28;20067;-65
2023/09/02 13:50:21;;;;;;;14.95;9.13;;;;;;;;;;5087444;28;20036;-65
2023/09/02 13:52:52;;;;;;;15.60;9.13;;;;;;;;;;5093854;28;20044;-65
2023/09/02 13:55:19;;;;;;;11.70;7.80;;;;;;;;;;5083813;28;20404;-65
2023/09/02 13:57:45;;;;;;;12.70;8.80;;;;;;;;;;5073780;28;20079;-65
2023/09/02 14:00:17;;;;;;;12.20;8.57;;;;;;;;;;5071705;28;20040;-65
2023/09/02 14:02:43;;;;;;;14.00;8.82;;;;;;;;;;5075959;28;20047;-65
2023/09/02 14:05:18;;;;;;;12.45;8.52;;;;;;;;;;5072544;28;20622;-65
2023/09/02 14:07:44;;;;;;;10.88;8.10;;;;;;;;;;5073042;28;20124;-65
2023/09/02 14:10:11;;;;;;;11.48;7.88;;;;;;;;;;5073781;28;20102;-65
2023/09/02 14:12:37;;;;;;;13.38;8.80;;;;;;;;;;5077382;28;20044;-65
2023/09/02 14:15:03;;;;;;;13.05;9.02;;;;;;;;;;5072151;28;20043;-65
2023/09/02 14:17:30;;;;;;;13.40;8.40;;;;;;;;;;5073060;28;20035;-65
2023/09/02 14:19:56;;;;;;;12.98;7.90;;;;;;;;;;5071120;28;20060;-65
2023/09/02 14:22:22;;;;;;;14.57;8.60;;;;;;;;;;5075166;28;20370;-65